Time;durP1;ratioP1;P1;durP2;ratioP2;P2;SDS_P1;SDS_P2;PMS_P1;PMS_P2;Temp;Humidity;BMP_temperature;BMP_pressure;BME280_temperature;BME280_humidity;BME280_pressure;Samples;Min_cycle;Max_cycle;Signal;HPM_P1;HPM_P2
2023/07/31 00:02:14;;;;;;;5.90;3.50;;;16.70;99.90;;;;;;4981260;28;20084;-80
2023/07/31 00:04:40;;;;;;;6.03;3.50;;;16.70;99.90;;;;;;4986932;28;20070;-81
2023/07/31 00:07:06;;;;;;;4.15;3.35;;;16.70;99.90;;;;;;4983156;28;20036;-81
2023/07/31 00:09:32;;;;;;;5.60;3.00;;;16.70;99.90;;;;;;4985351;28;20049;-82
2023/07/31 00:11:58;;;;;;;5.60;3.13;;;16.70;99.90;;;;;;5003944;28;20046;-81
2023/07/31 00:14:24;;;;;;;3.88;2.85;;;16.70;99.90;;;;;;4983780;28;20513;-81
2023/07/31 00:16:49;;;;;;;4.70;3.10;;;16.70;99.90;;;;;;4985553;28;20192;-80
2023/07/31 00:19:15;;;;;;;3.30;2.92;;;16.70;99.90;;;;;;4998294;28;20596;-80
2023/07/31 00:21:40;;;;;;;4.25;2.85;;;16.70;99.90;;;;;;4986034;28;20038;-79
2023/07/31 00:24:06;;;;;;;4.35;2.45;;;16.60;99.90;;;;;;4981015;28;20038;-79
2023/07/31 00:26:31;;;;;;;4.13;2.40;;;16.50;99.90;;;;;;4980882;28;20049;-79
2023/07/31 00:28:57;;;;;;;3.90;3.05;;;16.50;99.90;;;;;;4981902;28;20057;-80
2023/07/31 00:31:22;;;;;;;4.05;2.72;;;16.50;99.90;;;;;;4982233;28;20057;-79
2023/07/31 00:33:48;;;;;;;2.83;2.47;;;16.50;99.90;;;;;;4981017;28;20034;-79
2023/07/31 00:36:13;;;;;;;3.28;2.70;;;16.40;99.90;;;;;;4959768;28;20410;-79
2023/07/31 00:38:39;;;;;;;3.97;2.78;;;16.40;99.90;;;;;;4994318;28;20497;-80
2023/07/31 00:41:04;;;;;;;3.05;2.40;;;16.40;99.90;;;;;;4999345;28;20085;-80
2023/07/31 00:43:30;;;;;;;3.53;2.83;;;16.30;99.90;;;;;;4981293;28;20113;-79
2023/07/31 00:45:55;;;;;;;3.60;2.70;;;16.40;99.90;;;;;;4981714;28;20049;-79
2023/07/31 00:48:21;;;;;;;4.30;2.90;;;16.30;99.90;;;;;;4982794;28;20404;-80
2023/07/31 00:50:47;;;;;;;5.78;3.10;;;16.30;99.90;;;;;;4982807;28;20038;-80
2023/07/31 00:53:13;;;;;;;4.45;2.55;;;16.30;99.90;;;;;;4961093;28;20054;-79
2023/07/31 00:55:39;;;;;;;3.03;2.47;;;16.20;99.90;;;;;;4970456;28;20038;-79
2023/07/31 00:58:04;;;;;;;3.85;2.67;;;16.20;99.90;;;;;;4976201;28;20034;-79
2023/07/31 01:00:30;;;;;;;3.85;2.63;;;16.30;99.90;;;;;;4978579;28;20027;-80
2023/07/31 01:02:56;;;;;;;3.75;2.60;;;16.30;99.90;;;;;;4976417;28;20041;-79
2023/07/31 01:05:51;;;;;;;4.38;2.42;;;16.30;99.90;;;;;;4977570;28;20034;-80
2023/07/31 01:08:42;;;;;;;3.75;2.53;;;16.20;99.90;;;;;;4976130;28;20509;-79
2023/07/31 01:11:17;;;;;;;4.55;2.40;;;16.20;99.90;;;;;;4973041;28;20045;-80
2023/07/31 01:13:44;;;;;;;3.05;2.35;;;16.20;99.90;;;;;;4976633;28;20105;-79
2023/07/31 01:16:10;;;;;;;3.58;2.33;;;16.10;99.90;;;;;;4972239;28;20398;-79
2023/07/31 01:18:35;;;;;;;3.42;2.30;;;16.10;99.90;;;;;;4977271;28;20140;-79
2023/07/31 01:21:19;;;;;;;4.38;2.55;;;16.10;99.90;;;;;;4978690;28;20042;-79
2023/07/31 01:24:16;;;;;;;2.90;2.13;;;16.20;99.90;;;;;;4976103;28;20034;-79
2023/07/31 01:26:46;;;;;;;4.28;2.55;;;16.10;99.90;;;;;;4972611;28;20049;-79
2023/07/31 01:29:34;;;;;;;4.95;2.17;;;16.20;99.90;;;;;;4969262;28;20109;-80
2023/07/31 01:32:02;;;;;;;2.63;2.20;;;16.20;99.90;;;;;;4976817;28;20077;-79
2023/07/31 01:34:29;;;;;;;3.42;2.20;;;16.20;99.90;;;;;;4976864;28;20552;-81
2023/07/31 01:36:56;;;;;;;3.60;2.33;;;16.20;99.90;;;;;;4958042;28;20042;-79
2023/07/31 01:39:22;;;;;;;3.70;2.03;;;16.20;99.90;;;;;;4973954;28;20483;-80
2023/07/31 01:41:47;;;;;;;2.80;2.25;;;16.20;99.90;;;;;;4977100;28;20102;-78
2023/07/31 01:44:13;;;;;;;3.08;1.83;;;16.20;99.90;;;;;;4976122;28;20054;-79
2023/07/31 01:46:38;;;;;;;4.13;1.65;;;16.20;99.90;;;;;;4972051;28;20124;-79
2023/07/31 01:49:06;;;;;;;2.10;1.90;;;16.20;99.90;;;;;;4975337;28;20222;-79
2023/07/31 01:51:34;;;;;;;2.20;1.67;;;16.20;99.90;;;;;;4975333;28;20046;-79
2023/07/31 01:54:00;;;;;;;2.72;1.60;;;16.10;99.90;;;;;;4972888;28;20516;-79
2023/07/31 01:56:25;;;;;;;1.90;1.40;;;16.20;99.90;;;;;;4976198;28;20455;-79
2023/07/31 01:58:51;;;;;;;2.35;1.40;;;16.20;99.90;;;;;;4975758;28;20042;-78
2023/07/31 02:01:16;;;;;;;1.40;1.10;;;16.20;99.90;;;;;;4976354;28;20030;-80
2023/07/31 02:03:42;;;;;;;1.10;1.00;;;16.10;99.90;;;;;;4974781;28;20611;-79
2023/07/31 02:06:07;;;;;;;2.70;1.45;;;16.10;99.90;;;;;;4974433;28;20445;-81
2023/07/31 02:08:33;;;;;;;1.65;1.10;;;16.10;99.90;;;;;;4982739;28;20138;-79
2023/07/31 02:10:58;;;;;;;1.52;1.10;;;16.20;99.90;;;;;;4973083;28;20092;-79
2023/07/31 02:13:24;;;;;;;1.80;1.20;;;16.10;99.90;;;;;;4972517;28;20038;-79
2023/07/31 02:15:50;;;;;;;2.65;1.30;;;16.10;99.90;;;;;;4971813;28;20065;-79
2023/07/31 02:18:16;;;;;;;1.60;1.30;;;16.10;99.90;;;;;;4975749;28;20057;-78
2023/07/31 02:20:41;;;;;;;1.20;0.90;;;16.10;99.90;;;;;;4975464;28;20437;-79
2023/07/31 02:23:07;;;;;;;1.55;1.10;;;16.10;99.90;;;;;;4975654;28;20042;-80
2023/07/31 02:25:32;;;;;;;1.50;0.85;;;16.10;99.90;;;;;;4973665;28;20057;-79
2023/07/31 02:27:58;;;;;;;1.27;0.90;;;16.10;99.90;;;;;;4974512;28;20544;-79
2023/07/31 02:30:23;;;;;;;1.75;0.80;;;16.10;99.90;;;;;;4974704;28;20042;-79
2023/07/31 02:32:49;;;;;;;1.52;0.85;;;16.10;99.90;;;;;;4974687;28;20070;-80
2023/07/31 02:35:15;;;;;;;1.20;0.90;;;16.10;99.90;;;;;;4974218;28;20098;-79
2023/07/31 02:37:42;;;;;;;2.10;1.02;;;16.10;99.90;;;;;;4974754;28;20093;-78
2023/07/31 02:40:08;;;;;;;2.13;0.70;;;16.10;99.90;;;;;;4973900;28;20405;-79
2023/07/31 02:42:33;;;;;;;2.08;0.65;;;16.20;99.90;;;;;;4974714;28;20092;-80
2023/07/31 02:44:59;;;;;;;3.75;1.00;;;16.20;99.90;;;;;;4974804;28;20069;-78
2023/07/31 02:47:24;;;;;;;1.08;0.70;;;16.10;99.90;;;;;;4973873;28;20121;-79
2023/07/31 02:49:50;;;;;;;2.58;1.00;;;16.10;99.90;;;;;;4974033;28;20034;-80
2023/07/31 02:52:15;;;;;;;1.00;0.68;;;16.10;99.90;;;;;;4975070;28;20125;-80
2023/07/31 02:54:41;;;;;;;2.92;0.80;;;16.10;99.90;;;;;;4973433;28;20073;-79
2023/07/31 02:57:06;;;;;;;1.05;0.70;;;16.20;99.90;;;;;;4973354;28;20038;-79
2023/07/31 02:59:32;;;;;;;2.53;0.82;;;16.20;99.90;;;;;;4973257;28;20069;-79
2023/07/31 03:01:57;;;;;;;1.63;0.68;;;16.20;99.90;;;;;;4975366;28;20073;-80
2023/07/31 03:04:23;;;;;;;8.75;1.02;;;16.20;99.90;;;;;;4976733;28;20061;-81
2023/07/31 03:06:48;;;;;;;1.75;0.80;;;16.20;99.90;;;;;;4976449;28;20192;-81
2023/07/31 03:09:14;;;;;;;0.95;0.63;;;16.10;99.90;;;;;;4975998;28;20048;-79
2023/07/31 03:11:39;;;;;;;2.60;0.70;;;16.10;99.90;;;;;;4973915;28;20501;-80
2023/07/31 03:14:05;;;;;;;2.28;0.95;;;16.10;99.90;;;;;;4967741;28;20034;-80
2023/07/31 03:16:30;;;;;;;1.75;0.52;;;16.10;99.90;;;;;;4955629;28;20498;-81
2023/07/31 03:18:56;;;;;;;2.00;0.90;;;16.10;99.90;;;;;;4986413;28;20039;-80
2023/07/31 03:21:21;;;;;;;3.13;0.90;;;16.10;99.90;;;;;;4969497;28;20054;-80
2023/07/31 03:23:47;;;;;;;1.17;0.70;;;16.10;99.90;;;;;;4958245;28;20649;-80
2023/07/31 03:26:13;;;;;;;3.53;0.80;;;16.10;99.90;;;;;;4974708;28;20418;-80
2023/07/31 03:28:39;;;;;;;3.53;1.25;;;16.10;99.90;;;;;;4974396;28;20057;-79
2023/07/31 03:31:04;;;;;;;2.05;0.90;;;16.10;99.90;;;;;;4969302;28;20486;-81
2023/07/31 03:33:30;;;;;;;4.07;0.90;;;16.00;99.90;;;;;;4992182;28;20105;-80
2023/07/31 03:35:55;;;;;;;3.05;0.90;;;16.00;99.90;;;;;;4971410;28;20420;-80
2023/07/31 03:38:21;;;;;;;1.92;0.70;;;16.00;99.90;;;;;;4985689;28;20042;-79
2023/07/31 03:40:46;;;;;;;2.70;1.00;;;16.10;99.90;;;;;;4972800;28;20049;-80
2023/07/31 03:43:12;;;;;;;1.38;0.90;;;16.10;99.90;;;;;;4975234;28;20037;-79
2023/07/31 03:45:37;;;;;;;1.35;0.88;;;16.00;99.90;;;;;;4972597;28;20050;-80
2023/07/31 03:48:04;;;;;;;1.17;0.75;;;16.10;99.90;;;;;;4974541;28;20049;-80
2023/07/31 03:50:29;;;;;;;1.50;1.10;;;16.00;99.90;;;;;;4975856;28;20497;-79
2023/07/31 03:52:55;;;;;;;1.70;0.88;;;16.10;99.90;;;;;;4972988;28;20079;-80
2023/07/31 03:55:21;;;;;;;1.25;0.70;;;16.10;99.90;;;;;;4974933;28;20038;-80
2023/07/31 03:57:47;;;;;;;1.35;0.90;;;16.10;99.90;;;;;;4957808;28;20038;-79
2023/07/31 04:00:13;;;;;;;3.33;1.00;;;16.10;99.90;;;;;;4974033;28;20397;-80
2023/07/31 04:02:39;;;;;;;1.45;0.80;;;16.10;99.90;;;;;;4955006;28;20038;-79
2023/07/31 04:05:04;;;;;;;1.55;0.80;;;16.10;99.90;;;;;;4974180;28;20042;-80
2023/07/31 04:07:30;;;;;;;2.45;0.82;;;16.10;99.90;;;;;;4975178;28;20118;-80
2023/07/31 04:09:57;;;;;;;2.80;1.10;;;16.10;99.90;;;;;;4975055;28;20409;-80
2023/07/31 04:12:22;;;;;;;2.10;1.00;;;16.10;99.90;;;;;;4974894;28;20552;-79
2023/07/31 04:14:48;;;;;;;2.83;0.70;;;16.10;99.90;;;;;;4974147;28;20077;-80
2023/07/31 04:17:13;;;;;;;1.48;0.77;;;16.10;99.90;;;;;;4973282;28;20045;-79
2023/07/31 04:19:39;;;;;;;1.63;0.73;;;16.10;99.90;;;;;;4975261;28;20069;-79
2023/07/31 04:22:04;;;;;;;2.25;1.00;;;16.20;99.90;;;;;;4974782;28;20445;-79
2023/07/31 04:24:30;;;;;;;1.40;0.70;;;16.20;99.90;;;;;;4975148;28;20037;-79
2023/07/31 04:26:56;;;;;;;2.08;0.80;;;16.20;99.90;;;;;;4974468;28;20043;-79
2023/07/31 04:29:22;;;;;;;1.00;0.70;;;16.20;99.90;;;;;;4976070;28;20062;-79
2023/07/31 04:31:48;;;;;;;1.02;0.80;;;16.20;99.90;;;;;;4979072;28;20116;-80
2023/07/31 04:34:13;;;;;;;1.90;0.80;;;16.20;99.90;;;;;;4977486;28;20042;-79
2023/07/31 04:36:39;;;;;;;1.10;0.80;;;16.20;99.90;;;;;;4971359;28;20092;-79
2023/07/31 04:39:05;;;;;;;1.55;1.00;;;16.20;99.90;;;;;;4977482;28;20050;-80
2023/07/31 04:41:30;;;;;;;3.03;0.90;;;16.20;99.90;;;;;;4978029;28;20048;-79
2023/07/31 04:43:56;;;;;;;2.25;1.00;;;16.20;99.90;;;;;;4976857;28;20121;-80
2023/07/31 04:46:21;;;;;;;1.02;0.70;;;16.20;99.90;;;;;;4957456;28;20469;-79
2023/07/31 04:48:47;;;;;;;1.98;0.70;;;16.20;99.90;;;;;;4986299;28;20549;-78
2023/07/31 04:51:12;;;;;;;2.25;0.93;;;16.20;99.90;;;;;;4973816;28;20130;-78
2023/07/31 04:53:38;;;;;;;3.38;0.70;;;16.20;99.90;;;;;;4977661;28;20041;-79
2023/07/31 04:56:03;;;;;;;1.92;0.82;;;16.10;99.90;;;;;;4976296;28;20046;-79
2023/07/31 04:58:29;;;;;;;2.22;0.70;;;16.10;99.90;;;;;;4976395;28;20093;-78
2023/07/31 05:00:54;;;;;;;4.45;0.70;;;16.10;99.90;;;;;;4994081;28;20034;-78
2023/07/31 05:03:20;;;;;;;2.25;0.80;;;16.10;99.90;;;;;;4976729;28;20038;-79
2023/07/31 05:05:45;;;;;;;1.05;0.52;;;16.10;99.90;;;;;;4975204;28;20046;-78
2023/07/31 05:08:11;;;;;;;1.73;0.90;;;16.00;99.90;;;;;;4974729;28;20081;-78
2023/07/31 05:10:36;;;;;;;2.13;0.90;;;16.00;99.90;;;;;;4976306;28;20042;-78
2023/07/31 05:13:02;;;;;;;1.30;0.90;;;16.00;99.90;;;;;;4976099;28;20050;-78
2023/07/31 05:15:28;;;;;;;1.55;0.70;;;16.00;99.90;;;;;;4971642;28;20153;-79
2023/07/31 05:17:54;;;;;;;2.75;0.70;;;16.00;99.90;;;;;;4973767;28;20139;-78
2023/07/31 05:20:20;;;;;;;1.35;1.00;;;16.00;99.90;;;;;;4974992;28;20466;-78
2023/07/31 05:22:45;;;;;;;1.40;0.93;;;16.00;99.90;;;;;;4971789;28;20653;-79
2023/07/31 05:25:11;;;;;;;4.20;0.88;;;16.00;99.90;;;;;;4972458;28;20042;-78
2023/07/31 05:27:36;;;;;;;1.13;0.80;;;16.10;99.90;;;;;;4972933;28;20042;-78
2023/07/31 05:30:02;;;;;;;3.22;1.10;;;16.10;99.90;;;;;;4976061;28;20104;-78
2023/07/31 05:32:29;;;;;;;3.22;0.80;;;16.10;99.90;;;;;;4981561;28;20527;-78
2023/07/31 05:34:55;;;;;;;3.50;0.93;;;16.20;99.90;;;;;;4967465;28;20050;-78
2023/07/31 05:37:20;;;;;;;1.25;0.90;;;16.10;99.90;;;;;;4973929;28;20066;-77
2023/07/31 05:39:46;;;;;;;2.05;1.10;;;16.20;99.90;;;;;;4968886;28;20517;-78
2023/07/31 05:42:11;;;;;;;4.32;1.27;;;16.20;99.90;;;;;;4972610;28;20064;-78
2023/07/31 05:44:40;;;;;;;3.47;1.20;;;16.20;99.90;;;;;;4975191;28;20034;-78
2023/07/31 05:47:06;;;;;;;5.05;1.30;;;16.20;99.90;;;;;;4974308;28;20044;-78
2023/07/31 05:49:31;;;;;;;3.72;1.50;;;16.30;99.90;;;;;;4974052;28;20044;-78
2023/07/31 05:51:57;;;;;;;3.78;1.50;;;16.20;99.90;;;;;;4973570;28;20038;-78
2023/07/31 05:54:22;;;;;;;5.55;1.58;;;16.30;99.90;;;;;;4972165;28;20050;-78
2023/07/31 05:56:51;;;;;;;3.65;1.60;;;16.30;99.90;;;;;;4972010;28;20049;-78
2023/07/31 05:59:16;;;;;;;6.07;1.60;;;16.30;99.90;;;;;;4957386;28;20046;-78
2023/07/31 06:01:42;;;;;;;3.55;1.92;;;16.30;99.90;;;;;;4974605;28;20042;-78
2023/07/31 06:04:07;;;;;;;3.58;1.65;;;16.40;99.90;;;;;;4974642;28;20113;-77
2023/07/31 06:06:33;;;;;;;3.97;1.80;;;16.40;99.90;;;;;;4973589;28;20042;-78
2023/07/31 06:08:59;;;;;;;4.50;2.10;;;16.40;99.90;;;;;;4971037;28;20053;-78
2023/07/31 06:11:25;;;;;;;4.70;2.22;;;16.50;99.90;;;;;;4975425;28;20097;-78
2023/07/31 06:13:50;;;;;;;4.18;2.20;;;16.50;99.90;;;;;;4972237;28;20121;-78
2023/07/31 06:16:16;;;;;;;10.80;2.92;;;16.50;99.90;;;;;;4975122;28;20081;-77
2023/07/31 06:18:42;;;;;;;7.20;3.17;;;16.50;99.90;;;;;;4974471;28;20169;-77
2023/07/31 06:21:09;;;;;;;9.23;3.55;;;16.60;99.90;;;;;;4974826;28;20525;-78
2023/07/31 06:23:34;;;;;;;13.60;3.80;;;16.60;99.90;;;;;;4969860;28;20068;-77
2023/07/31 06:26:00;;;;;;;12.27;3.55;;;16.60;99.90;;;;;;4972393;28;20038;-77
2023/07/31 06:28:29;;;;;;;11.07;3.90;;;16.70;99.90;;;;;;4975251;28;20051;-79
2023/07/31 06:30:55;;;;;;;10.20;4.57;;;16.80;99.90;;;;;;4973091;28;20453;-77
2023/07/31 06:33:23;;;;;;;14.38;4.95;;;16.80;99.90;;;;;;4974260;28;20093;-77
2023/07/31 06:35:49;;;;;;;12.20;4.40;;;16.90;99.90;;;;;;4973261;28;20062;-77
2023/07/31 06:38:14;;;;;;;13.30;4.60;;;17.00;99.90;;;;;;4973856;28;20120;-77
2023/07/31 06:40:40;;;;;;;24.02;5.97;;;17.00;99.90;;;;;;4974013;28;20117;-77
2023/07/31 06:43:08;;;;;;;16.02;5.78;;;17.10;99.90;;;;;;4973318;28;20080;-78
2023/07/31 06:45:35;;;;;;;16.75;5.35;;;17.20;99.90;;;;;;4967504;28;20037;-77
2023/07/31 06:48:02;;;;;;;16.20;5.97;;;17.30;99.90;;;;;;4989059;28;20053;-77
2023/07/31 06:50:31;;;;;;;19.45;5.45;;;17.30;99.90;;;;;;4977094;28;20073;-77
2023/07/31 06:52:57;;;;;;;20.88;5.63;;;17.40;99.90;;;;;;4971478;28;20133;-77
2023/07/31 06:55:23;;;;;;;14.27;4.78;;;17.40;99.90;;;;;;4969469;28;20104;-77
2023/07/31 06:57:50;;;;;;;19.83;5.57;;;17.50;99.90;;;;;;4988379;28;20054;-77
2023/07/31 07:00:17;;;;;;;13.93;5.50;;;17.50;99.90;;;;;;4974056;28;20466;-77
2023/07/31 07:02:42;;;;;;;15.90;5.50;;;17.50;99.90;;;;;;4971228;28;20046;-78
2023/07/31 07:05:08;;;;;;;17.23;6.10;;;17.60;99.90;;;;;;4971871;28;20536;-78
2023/07/31 07:07:34;;;;;;;14.68;5.47;;;17.60;99.90;;;;;;4973202;28;20390;-77
2023/07/31 07:10:00;;;;;;;14.43;6.22;;;17.60;99.90;;;;;;4958325;28;20478;-79
2023/07/31 07:12:29;;;;;;;16.48;5.82;;;17.60;99.90;;;;;;4974898;28;20080;-78
2023/07/31 07:14:54;;;;;;;18.30;6.15;;;17.60;99.90;;;;;;4974522;28;20034;-78
2023/07/31 07:17:20;;;;;;;21.52;5.88;;;17.60;99.90;;;;;;4958714;28;20045;-77
2023/07/31 07:19:47;;;;;;;18.02;6.32;;;17.60;99.90;;;;;;4974652;28;20049;-77
2023/07/31 07:22:13;;;;;;;21.52;6.10;;;17.50;99.90;;;;;;4966706;28;20085;-77
2023/07/31 07:24:38;;;;;;;17.90;6.47;;;17.50;99.90;;;;;;4974387;28;20038;-78
2023/07/31 07:27:04;;;;;;;16.20;6.07;;;17.40;99.90;;;;;;4958082;28;20108;-78
2023/07/31 07:29:30;;;;;;;19.58;5.97;;;17.40;99.90;;;;;;4974616;28;20478;-78
2023/07/31 07:31:55;;;;;;;16.95;5.15;;;17.40;99.90;;;;;;4973511;28;20089;-78
2023/07/31 07:34:30;;;;;;;16.67;5.30;;;17.40;99.90;;;;;;4973077;28;20129;-78
2023/07/31 07:36:56;;;;;;;14.68;5.22;;;17.40;99.90;;;;;;4959707;28;20125;-78
2023/07/31 07:39:21;;;;;;;14.93;4.65;;;17.40;99.90;;;;;;4973495;28;20122;-78
2023/07/31 07:41:47;;;;;;;12.18;3.60;;;17.30;99.90;;;;;;4973096;28;20466;-78
2023/07/31 07:44:13;;;;;;;6.07;2.70;;;17.30;99.90;;;;;;4965953;28;20046;-78
2023/07/31 07:46:39;;;;;;;4.78;2.30;;;17.30;99.90;;;;;;4956409;28;20084;-77
2023/07/31 07:49:04;;;;;;;7.03;2.10;;;17.30;99.90;;;;;;4973479;28;20501;-77
2023/07/31 07:51:31;;;;;;;3.95;1.80;;;17.30;99.90;;;;;;4973382;28;20433;-77
2023/07/31 07:53:57;;;;;;;4.43;1.67;;;17.30;99.90;;;;;;4974506;28;20073;-78
2023/07/31 07:56:24;;;;;;;2.83;1.52;;;17.30;99.90;;;;;;4969704;28;20050;-77
2023/07/31 07:58:50;;;;;;;3.75;1.55;;;17.30;99.90;;;;;;4971501;28;20506;-77
2023/07/31 08:01:16;;;;;;;4.40;1.50;;;17.30;99.90;;;;;;4971414;28;20077;-78
2023/07/31 08:03:41;;;;;;;3.08;1.40;;;17.30;99.90;;;;;;4976208;28;20560;-77
2023/07/31 08:06:09;;;;;;;4.82;1.60;;;17.30;99.90;;;;;;4977193;28;20038;-77
2023/07/31 08:08:35;;;;;;;3.00;1.45;;;17.30;99.90;;;;;;4971400;28;20124;-78
2023/07/31 08:11:00;;;;;;;3.45;1.50;;;17.40;99.90;;;;;;4975444;28;20046;-77
2023/07/31 08:13:26;;;;;;;2.83;1.50;;;17.60;99.90;;;;;;4972200;28;20410;-77
2023/07/31 08:15:52;;;;;;;4.85;1.60;;;17.40;99.90;;;;;;4977480;28;20038;-77
2023/07/31 08:18:17;;;;;;;3.42;1.60;;;17.50;99.90;;;;;;4976684;28;20394;-77
2023/07/31 08:20:43;;;;;;;2.97;1.60;;;17.50;99.90;;;;;;4977931;28;20557;-78
2023/07/31 08:23:09;;;;;;;2.30;1.08;;;17.60;99.90;;;;;;4975498;28;20578;-78
2023/07/31 08:25:38;;;;;;;1.98;1.17;;;17.60;99.90;;;;;;4956121;28;20038;-77
2023/07/31 08:28:04;;;;;;;4.88;1.27;;;17.70;99.90;;;;;;4970469;28;20042;-76
2023/07/31 08:30:30;;;;;;;3.42;1.20;;;17.70;99.90;;;;;;4962057;28;20038;-77
2023/07/31 08:32:55;;;;;;;4.18;1.42;;;17.80;99.90;;;;;;4976815;28;20034;-77
2023/07/31 08:35:21;;;;;;;2.10;1.30;;;17.80;99.90;;;;;;4977750;28;20490;-77
2023/07/31 08:37:47;;;;;;;1.42;0.93;;;17.90;99.90;;;;;;4976846;28;20038;-76
2023/07/31 08:40:13;;;;;;;2.58;1.20;;;18.00;99.90;;;;;;4972586;28;20046;-77
2023/07/31 08:42:49;;;;;;;2.38;1.15;;;18.10;99.90;;;;;;4990600;28;20031;-76
2023/07/31 08:45:17;;;;;;;1.95;1.20;;;18.20;99.90;;;;;;4990434;28;20039;-77
2023/07/31 08:47:50;;;;;;;1.58;0.85;;;18.20;99.90;;;;;;4966448;28;20035;-77
2023/07/31 08:50:18;;;;;;;2.17;0.90;;;18.30;99.90;;;;;;4993005;28;20038;-77
2023/07/31 08:52:45;;;;;;;1.98;0.90;;;18.50;99.90;;;;;;4976901;28;20034;-77
2023/07/31 08:55:11;;;;;;;2.10;0.80;;;18.40;99.90;;;;;;4972125;28;20034;-78
2023/07/31 08:57:38;;;;;;;2.55;1.10;;;18.50;99.90;;;;;;4972058;28;20485;-77
2023/07/31 09:00:05;;;;;;;2.10;0.82;;;18.80;99.90;;;;;;4974266;28;20500;-77
2023/07/31 09:03:08;;;;;;;2.15;1.10;;;18.50;99.90;;;;;;4974764;28;20393;-77
2023/07/31 09:05:35;;;;;;;1.50;0.95;;;18.50;99.90;;;;;;4970493;28;20078;-77
2023/07/31 09:08:03;;;;;;;1.50;0.90;;;18.50;99.90;;;;;;4976997;28;20105;-77
2023/07/31 09:10:28;;;;;;;2.63;0.90;;;18.50;99.90;;;;;;4973771;28;20038;-77
2023/07/31 09:12:55;;;;;;;5.10;1.10;;;18.40;99.90;;;;;;4970452;28;20050;-77
2023/07/31 09:15:23;;;;;;;2.95;0.90;;;18.30;99.90;;;;;;4965210;28;20060;-78
2023/07/31 09:18:00;;;;;;;3.08;1.10;;;18.30;99.90;;;;;;4972625;28;20053;-78
2023/07/31 09:20:25;;;;;;;1.65;0.95;;;18.30;99.90;;;;;;4974501;28;20141;-78
2023/07/31 09:22:51;;;;;;;2.05;0.90;;;18.30;99.90;;;;;;4975946;28;20125;-78
2023/07/31 09:25:19;;;;;;;1.48;0.80;;;18.30;99.90;;;;;;4976744;28;20517;-79
2023/07/31 09:27:48;;;;;;;0.80;0.50;;;18.20;99.90;;;;;;4978276;28;20988;-78
2023/07/31 09:30:15;;;;;;;2.55;0.70;;;18.20;99.90;;;;;;4973882;28;20030;-79
2023/07/31 09:32:40;;;;;;;2.75;0.80;;;18.20;99.90;;;;;;4981803;28;20128;-78
2023/07/31 09:35:29;;;;;;;1.55;0.80;;;18.20;99.90;;;;;;4976103;28;20335;-79
2023/07/31 09:38:00;;;;;;;0.98;0.55;;;18.20;99.90;;;;;;4984702;28;20097;-79
2023/07/31 09:40:30;;;;;;;0.73;0.55;;;18.30;99.90;;;;;;4988368;28;20039;-78
2023/07/31 09:42:58;;;;;;;1.02;0.50;;;18.30;99.90;;;;;;4971040;28;20110;-80
2023/07/31 09:45:24;;;;;;;0.60;0.50;;;18.40;99.90;;;;;;4970405;28;20037;-79
2023/07/31 09:47:49;;;;;;;0.68;0.32;;;18.40;99.90;;;;;;4980703;28;20045;-78
2023/07/31 09:50:18;;;;;;;1.40;0.32;;;18.50;99.90;;;;;;4996112;28;20026;-79
2023/07/31 09:52:43;;;;;;;1.52;0.32;;;18.50;99.90;;;;;;4986581;28;20117;-79
2023/07/31 09:55:10;;;;;;;1.23;0.38;;;18.50;99.90;;;;;;4975902;28;20569;-79
2023/07/31 09:57:44;;;;;;;3.15;0.50;;;18.60;99.90;;;;;;4980026;28;20057;-79
2023/07/31 10:00:11;;;;;;;0.30;0.20;;;18.60;99.90;;;;;;4975204;28;20568;-77
2023/07/31 10:02:38;;;;;;;0.60;0.38;;;18.70;99.90;;;;;;4973687;28;20038;-80
2023/07/31 10:05:05;;;;;;;0.82;0.30;;;18.80;99.90;;;;;;4980375;28;20038;-79
2023/07/31 10:07:35;;;;;;;1.85;0.40;;;18.80;99.90;;;;;;4978394;28;20126;-79
2023/07/31 10:10:03;;;;;;;1.08;0.20;;;18.80;99.90;;;;;;4975846;28;20129;-78
2023/07/31 10:12:31;;;;;;;1.13;0.55;;;18.80;99.90;;;;;;4989417;28;20041;-78
2023/07/31 10:14:57;;;;;;;0.57;0.20;;;18.70;99.90;;;;;;4963836;28;20469;-79
2023/07/31 10:17:23;;;;;;;1.00;0.20;;;18.80;99.90;;;;;;4974524;28;20121;-79
2023/07/31 10:19:50;;;;;;;3.22;0.40;;;18.80;99.90;;;;;;4983687;28;20406;-78
2023/07/31 10:22:16;;;;;;;0.30;0.10;;;18.70;99.90;;;;;;4973284;28;20041;-78
2023/07/31 10:24:43;;;;;;;0.82;0.15;;;18.80;99.90;;;;;;4977092;28;20045;-78
2023/07/31 10:27:10;;;;;;;2.58;0.25;;;18.70;99.90;;;;;;4979314;28;20425;-80
2023/07/31 10:29:37;;;;;;;3.22;0.35;;;18.70;99.90;;;;;;4976302;28;20038;-81
2023/07/31 10:32:06;;;;;;;0.52;0.13;;;18.50;99.90;;;;;;4970684;28;20061;-80
2023/07/31 10:34:33;;;;;;;2.17;0.38;;;18.40;99.90;;;;;;4971428;28;20046;-80
2023/07/31 10:37:22;;;;;;;0.73;0.17;;;18.50;99.90;;;;;;4978498;28;20034;-78
2023/07/31 10:40:02;;;;;;;1.15;0.22;;;18.50;99.90;;;;;;4978834;28;20042;-78
2023/07/31 10:42:35;;;;;;;1.52;0.20;;;18.50;99.90;;;;;;4977077;28;20123;-78
2023/07/31 10:45:05;;;;;;;0.73;0.30;;;18.70;99.90;;;;;;4970913;28;20034;-77
2023/07/31 10:47:36;;;;;;;0.73;0.30;;;19.00;99.90;;;;;;4979952;28;20038;-78
2023/07/31 10:50:21;;;;;;;0.22;0.22;;;19.40;99.90;;;;;;4979839;28;20049;-78
2023/07/31 10:52:51;;;;;;;1.13;0.20;;;19.90;99.90;;;;;;4979297;28;20157;-77
2023/07/31 10:55:33;;;;;;;0.38;0.20;;;20.00;99.90;;;;;;4961382;28;20033;-78
2023/07/31 10:58:13;;;;;;;1.23;0.20;;;20.30;99.90;;;;;;4995295;28;20498;-78
2023/07/31 11:00:42;;;;;;;1.90;0.22;;;20.60;99.90;;;;;;4989066;28;20114;-78
2023/07/31 11:03:17;;;;;;;1.55;0.20;;;20.70;99.90;;;;;;4982304;28;20042;-78
2023/07/31 11:05:42;;;;;;;1.05;0.20;;;20.80;99.90;;;;;;4994185;28;20038;-78
2023/07/31 11:08:16;;;;;;;0.77;0.30;;;20.70;99.90;;;;;;4982336;28;20047;-77
2023/07/31 11:10:44;;;;;;;1.08;0.55;;;20.60;99.90;;;;;;4994285;28;20042;-79
2023/07/31 11:13:10;;;;;;;1.10;0.40;;;20.50;99.90;;;;;;4981007;28;20101;-78
2023/07/31 11:15:35;;;;;;;1.50;0.38;;;20.40;99.90;;;;;;4980220;28;20038;-78
2023/07/31 11:18:05;;;;;;;0.43;0.43;;;20.50;99.90;;;;;;4963637;28;20046;-78
2023/07/31 11:20:32;;;;;;;0.60;0.45;;;20.60;99.90;;;;;;4979213;28;21831;-79
2023/07/31 11:23:06;;;;;;;2.90;0.40;;;20.80;99.90;;;;;;4980415;28;20466;-78
2023/07/31 11:25:32;;;;;;;1.77;0.60;;;20.90;99.90;;;;;;4979364;28;20093;-77
2023/07/31 11:28:05;;;;;;;0.93;0.47;;;21.00;99.90;;;;;;4963982;28;20406;-77
2023/07/31 11:30:31;;;;;;;0.40;0.30;;;20.90;99.90;;;;;;4979522;28;20121;-77
2023/07/31 11:32:57;;;;;;;0.95;0.40;;;21.00;99.90;;;;;;4979866;28;20829;-77
2023/07/31 11:35:22;;;;;;;1.10;0.55;;;20.90;99.90;;;;;;4979068;28;20037;-78
2023/07/31 11:37:48;;;;;;;1.50;0.50;;;20.80;99.90;;;;;;4978107;28;20057;-77
2023/07/31 11:40:14;;;;;;;1.00;0.60;;;20.80;99.90;;;;;;4986452;28;20026;-78
2023/07/31 11:42:40;;;;;;;1.10;0.60;;;20.80;99.90;;;;;;4975981;28;20038;-78
2023/07/31 11:45:08;;;;;;;2.00;0.40;;;20.70;99.90;;;;;;4976507;28;20082;-78
2023/07/31 11:47:35;;;;;;;1.45;0.63;;;20.80;99.90;;;;;;4970091;28;20038;-78
2023/07/31 11:50:05;;;;;;;1.10;0.60;;;20.80;99.90;;;;;;4976374;28;20125;-78
2023/07/31 11:52:37;;;;;;;1.35;0.50;;;20.80;99.90;;;;;;4971161;28;20065;-78
2023/07/31 11:55:04;;;;;;;1.38;0.65;;;20.60;99.90;;;;;;4971513;28;20309;-78
2023/07/31 11:57:30;;;;;;;2.20;0.60;;;20.30;99.90;;;;;;4974291;28;20460;-78
2023/07/31 11:59:57;;;;;;;1.42;0.75;;;20.10;99.90;;;;;;4973350;28;20050;-78
2023/07/31 12:02:23;;;;;;;2.17;1.00;;;19.90;99.90;;;;;;4974108;28;20045;-78
2023/07/31 12:04:49;;;;;;;1.52;0.90;;;19.60;99.90;;;;;;4973388;28;20038;-78
2023/07/31 12:07:14;;;;;;;3.78;1.10;;;19.50;99.90;;;;;;4972471;28;20053;-79
2023/07/31 12:09:54;;;;;;;2.38;0.98;;;19.50;99.90;;;;;;4991335;28;20038;-78
2023/07/31 12:12:22;;;;;;;4.03;1.00;;;19.60;99.90;;;;;;4973519;28;20049;-78
2023/07/31 12:14:47;;;;;;;2.10;0.90;;;19.70;99.90;;;;;;4967874;28;20042;-78
2023/07/31 12:17:14;;;;;;;1.65;0.93;;;19.80;99.90;;;;;;4976377;28;20045;-78
2023/07/31 12:19:40;;;;;;;1.63;0.73;;;19.70;99.90;;;;;;4988743;28;20074;-78
2023/07/31 12:22:16;;;;;;;3.60;1.02;;;19.80;99.90;;;;;;4974228;28;20116;-78
2023/07/31 12:24:46;;;;;;;2.38;1.00;;;19.80;99.90;;;;;;4964109;28;20042;-78
2023/07/31 12:27:15;;;;;;;2.53;1.05;;;19.60;99.90;;;;;;4972539;28;20046;-78
2023/07/31 12:29:44;;;;;;;1.85;0.90;;;19.50;99.90;;;;;;4974498;28;20497;-78
2023/07/31 12:32:21;;;;;;;1.27;0.90;;;19.50;99.90;;;;;;4971215;28;20048;-79
2023/07/31 12:34:46;;;;;;;2.20;0.90;;;19.50;99.90;;;;;;4980357;28;20049;-77
2023/07/31 12:37:12;;;;;;;2.15;1.00;;;19.50;99.90;;;;;;4971245;28;20409;-79
2023/07/31 12:39:37;;;;;;;3.30;1.20;;;19.50;99.90;;;;;;4976728;28;20041;-77
2023/07/31 12:42:03;;;;;;;2.53;1.20;;;19.50;99.90;;;;;;4971634;28;20046;-77
2023/07/31 12:44:29;;;;;;;3.72;1.52;;;19.50;99.90;;;;;;4973647;28;20075;-78
2023/07/31 12:46:54;;;;;;;5.03;1.60;;;19.60;99.90;;;;;;4974568;28;20038;-78